createdAt,value
2022-12-23T00:01:44.773Z,100019.47
2022-12-23T00:04:11.374Z,100003.78
2022-12-23T00:06:37.851Z,100012.59
2022-12-23T00:09:04.240Z,100017.06
2022-12-23T00:11:30.666Z,100005.38
2022-12-23T00:14:21.132Z,100015.00
2022-12-23T00:16:49.096Z,99984.81
2022-12-23T00:19:15.549Z,100010.75
2022-12-23T00:21:42.198Z,100016.81
2022-12-23T00:24:08.599Z,99985.66
2022-12-23T00:26:35.051Z,100027.00
2022-12-23T00:29:01.461Z,100015.53
2022-12-23T00:31:27.880Z,100018.88
2022-12-23T00:33:54.519Z,100004.75
2022-12-23T00:36:24.980Z,100023.88
2022-12-23T00:39:10.414Z,100019.88
2022-12-23T00:41:55.754Z,100030.03
2022-12-23T00:44:22.350Z,100030.88
2022-12-23T00:46:49.726Z,100038.84
2022-12-23T00:49:36.300Z,100035.50
2022-12-23T00:52:05.497Z,100038.56
2022-12-23T00:54:31.991Z,100012.59
2022-12-23T00:56:59.457Z,100036.75
2022-12-23T00:59:26.672Z,100031.44
2022-12-23T01:02:12.066Z,100034.78
2022-12-23T01:04:57.174Z,100018.28
2022-12-23T01:07:24.571Z,100019.81
2022-12-23T01:09:51.032Z,100024.97
2022-12-23T01:12:17.955Z,100020.66
2022-12-23T01:14:44.817Z,100024.00
2022-12-23T01:17:11.636Z,100022.31
2022-12-23T01:19:38.232Z,100029.47
2022-12-23T01:22:04.645Z,100019.66
2022-12-23T01:24:32.160Z,100032.97
2022-12-23T01:26:59.012Z,100026.66
2022-12-23T01:29:26.099Z,100008.53
2022-12-23T01:31:52.547Z,100003.78
2022-12-23T01:34:19.136Z,100024.97
2022-12-23T01:36:45.584Z,100024.00
2022-12-23T01:39:12.256Z,100023.00
2022-12-23T01:41:57.605Z,100026.06
2022-12-23T01:44:45.491Z,100024.91
2022-12-23T01:47:34.682Z,100027.72
2022-12-23T01:50:12.865Z,100025.91
2022-12-23T01:52:45.726Z,100026.06
2022-12-23T01:55:14.420Z,100034.72
2022-12-23T01:57:42.820Z,100029.41
2022-12-23T02:00:29.654Z,100026.06
2022-12-23T02:03:14.543Z,100024.56
2022-12-23T02:05:44.589Z,100020.34
2022-12-23T02:08:31.053Z,100033.88
2022-12-23T02:11:12.197Z,100026.75
2022-12-23T02:14:32.629Z,100030.78
2022-12-23T02:17:10.051Z,100030.09
2022-12-23T02:20:08.643Z,100028.97
2022-12-23T02:23:13.737Z,100019.84
2022-12-23T02:25:49.319Z,100026.31
2022-12-23T02:28:30.173Z,100014.81
2022-12-23T02:31:13.904Z,100014.81
2022-12-23T02:33:47.651Z,100014.53
2022-12-23T02:36:31.999Z,100020.97
2022-12-23T02:39:19.292Z,100030.19
2022-12-23T02:41:57.531Z,100035.53
2022-12-23T02:44:36.200Z,100038.88
2022-12-23T02:47:10.195Z,100035.53
2022-12-23T02:49:41.322Z,100003.16
2022-12-23T02:52:13.174Z,100012.38
2022-12-23T02:54:52.483Z,100046.53
2022-12-23T02:57:25.520Z,100052.69
2022-12-23T02:59:52.936Z,100057.16
2022-12-23T03:02:19.764Z,100054.66
2022-12-23T03:04:46.365Z,100055.50
2022-12-23T03:07:26.581Z,100039.44
2022-12-23T03:10:13.550Z,100064.97
2022-12-23T03:13:02.287Z,100054.91
2022-12-23T03:16:02.515Z,100064.56
2022-12-23T03:18:28.839Z,100071.78
2022-12-23T03:21:11.401Z,100066.53
2022-12-23T03:23:43.537Z,100077.16
2022-12-23T03:26:18.791Z,100072.16
2022-12-23T03:28:49.349Z,100082.34
2022-12-23T03:31:20.373Z,100072.97
2022-12-23T03:33:51.893Z,100089.19
2022-12-23T03:36:25.044Z,100088.91
2022-12-23T03:38:55.514Z,100091.38
2022-12-23T03:41:28.740Z,100089.41
2022-12-23T03:44:02.805Z,100082.28
2022-12-23T03:46:34.788Z,100088.59
2022-12-23T03:49:07.070Z,100091.09
2022-12-23T03:51:44.696Z,100082.97
2022-12-23T03:54:18.920Z,100048.81
2022-12-23T03:56:56.593Z,100081.28
2022-12-23T03:59:30.252Z,100078.63
2022-12-23T04:01:56.722Z,100079.63
2022-12-23T04:04:29.767Z,100081.44
2022-12-23T04:07:15.053Z,100092.09
2022-12-23T04:09:43.125Z,100086.75
2022-12-23T04:12:09.890Z,100073.13
2022-12-23T04:14:37.845Z,100092.22
2022-12-23T04:17:04.257Z,100090.72
2022-12-23T04:19:30.647Z,100101.22
2022-12-23T04:22:00.194Z,100092.56
2022-12-23T04:24:26.646Z,100089.19
2022-12-23T04:26:53.078Z,100086.69
2022-12-23T04:29:19.628Z,100088.34
2022-12-23T04:31:46.066Z,100089.50
2022-12-23T04:34:12.701Z,100094.81
2022-12-23T04:36:39.104Z,100100.28
2022-12-23T04:39:05.535Z,100070.25
2022-12-23T04:41:31.971Z,100094.41
2022-12-23T04:43:58.426Z,100090.38
2022-12-23T04:46:24.855Z,100097.38
2022-12-23T04:48:51.322Z,100102.00
2022-12-23T04:51:17.802Z,100109.28
2022-12-23T04:53:44.247Z,100074.09
2022-12-23T04:56:10.652Z,100102.88
2022-12-23T04:58:37.037Z,100092.72
2022-12-23T05:01:09.354Z,100120.22
2022-12-23T05:03:36.736Z,100121.19
2022-12-23T05:06:04.617Z,100128.19
2022-12-23T05:08:31.141Z,100124.84
2022-12-23T05:10:57.935Z,100129.88
2022-12-23T05:13:24.755Z,100131.41
2022-12-23T05:15:52.822Z,100122.44
2022-12-23T05:18:20.190Z,100128.06
2022-12-23T05:20:46.812Z,100131.41
2022-12-23T05:23:13.518Z,100127.34
2022-12-23T05:25:40.225Z,100126.78
2022-12-23T05:28:07.936Z,100129.59
2022-12-23T05:30:34.388Z,100136.59
2022-12-23T05:33:00.930Z,100127.91
2022-12-23T05:35:27.934Z,100133.38
2022-12-23T05:37:54.365Z,100135.06
2022-12-23T05:40:24.717Z,100141.06
2022-12-23T05:42:51.743Z,100148.06
2022-12-23T05:45:18.261Z,100144.56
2022-12-23T05:47:44.698Z,100154.22
2022-12-23T05:50:11.629Z,100154.50
2022-12-23T05:52:38.065Z,100164.84
2022-12-23T05:55:05.103Z,100169.34
2022-12-23T05:57:32.211Z,100163.31
2022-12-23T05:59:58.864Z,100165.97
2022-12-23T06:02:25.393Z,100159.97
2022-12-23T06:04:51.906Z,100157.34
2022-12-23T06:07:18.277Z,100167.53
2022-12-23T06:09:44.699Z,100169.34
2022-12-23T06:12:11.132Z,100168.00
2022-12-23T06:14:37.652Z,100157.09
2022-12-23T06:17:04.118Z,100168.78
2022-12-23T06:19:30.856Z,100171.63
2022-12-23T06:21:57.266Z,100180.72
2022-12-23T06:24:23.656Z,100179.88
2022-12-23T06:26:56.566Z,100188.00
2022-12-23T06:29:23.610Z,100176.81
2022-12-23T06:31:50.081Z,100182.00
2022-12-23T06:34:16.572Z,100178.63
2022-12-23T06:36:42.933Z,100179.47
2022-12-23T06:39:11.193Z,100182.41
2022-12-23T06:41:37.677Z,100139.09
2022-12-23T06:44:04.324Z,100192.06
2022-12-23T06:46:30.782Z,100184.22
2022-12-23T06:48:57.242Z,100184.38
2022-12-23T06:51:23.741Z,100189.88
2022-12-23T06:53:50.234Z,100195.19
2022-12-23T06:56:16.664Z,100192.09
2022-12-23T06:58:43.460Z,100190.97
2022-12-23T07:01:11.148Z,100194.63
2022-12-23T07:03:38.036Z,100197.13
2022-12-23T07:06:04.846Z,100192.78
2022-12-23T07:08:31.324Z,100176.16
2022-12-23T07:11:03.384Z,100163.28
2022-12-23T07:13:30.914Z,100182.84
2022-12-23T07:15:57.707Z,100198.53
2022-12-23T07:18:25.178Z,100215.88
2022-12-23T07:20:54.658Z,100231.84
2022-12-23T07:23:21.305Z,100202.16
2022-12-23T07:25:47.962Z,100161.78
2022-12-23T07:28:14.523Z,100157.72
2022-12-23T07:30:41.061Z,100066.22
2022-12-23T07:33:08.028Z,100197.41
2022-12-23T07:35:34.725Z,100191.53
2022-12-23T07:38:01.287Z,100192.13
2022-12-23T07:40:28.078Z,100254.88
2022-12-23T07:42:58.472Z,100273.53
2022-12-23T07:45:27.533Z,100231.09
2022-12-23T07:47:57.028Z,100271.56
2022-12-23T07:50:24.189Z,100242.72
2022-12-23T07:52:54.602Z,100138.72
2022-12-23T07:55:21.586Z,100137.63
2022-12-23T07:57:49.861Z,100157.28
2022-12-23T08:00:17.167Z,100204.56
2022-12-23T08:02:44.232Z,100258.38
2022-12-23T08:05:11.838Z,100276.16
2022-12-23T08:07:38.786Z,100269.88
2022-12-23T08:10:06.605Z,100253.78
2022-12-23T08:12:33.704Z,100179.38
2022-12-23T08:15:00.517Z,100277.41
2022-12-23T08:17:29.527Z,100247.78
2022-12-23T08:19:57.001Z,100271.84
2022-12-23T08:22:24.068Z,100245.81
2022-12-23T08:24:50.932Z,100248.63
2022-12-23T08:27:17.661Z,100252.81
2022-12-23T08:29:44.265Z,100279.34
2022-12-23T08:32:12.091Z,100235.03
2022-12-23T08:34:38.863Z,100277.53
2022-12-23T08:37:05.519Z,100249.19
2022-12-23T08:39:32.506Z,100235.19
2022-12-23T08:41:59.017Z,100214.06
2022-12-23T08:44:27.938Z,100281.50
2022-12-23T08:46:58.178Z,100277.56
2022-12-23T08:49:24.643Z,100304.97
2022-12-23T08:51:51.430Z,100212.22
2022-12-23T08:54:20.364Z,100305.81
2022-12-23T08:56:49.586Z,100290.97
2022-12-23T08:59:20.360Z,100319.78
2022-12-23T09:01:47.527Z,100280.22
2022-12-23T09:04:14.316Z,100305.13
2022-12-23T09:06:42.698Z,100334.50
2022-12-23T09:09:12.575Z,100335.34
2022-12-23T09:11:39.314Z,100305.81
2022-12-23T09:14:08.508Z,100258.38
2022-12-23T09:16:35.510Z,100329.88
2022-12-23T09:19:02.139Z,100313.81
2022-12-23T09:21:28.933Z,100334.78
2022-12-23T09:23:55.422Z,100326.78
2022-12-23T09:26:24.965Z,100331.97
2022-12-23T09:28:51.814Z,100324.84
2022-12-23T09:31:19.330Z,100330.03
2022-12-23T09:33:50.812Z,100337.56
2022-12-23T09:36:17.540Z,100338.53
2022-12-23T09:38:44.851Z,100339.38
2022-12-23T09:41:17.191Z,100340.91
2022-12-23T09:44:16.015Z,100340.63
2022-12-23T09:46:53.971Z,100346.94
2022-12-23T09:49:22.446Z,100341.06
2022-12-23T09:51:50.129Z,100329.88
2022-12-23T09:54:23.381Z,100342.88
2022-12-23T09:56:54.891Z,100340.22
2022-12-23T09:59:36.526Z,100336.72
2022-12-23T10:02:17.607Z,100335.88
2022-12-23T10:04:56.174Z,100340.34
2022-12-23T10:07:35.066Z,100280.47
2022-12-23T10:10:13.971Z,100319.63
2022-12-23T10:12:47.316Z,100319.75
2022-12-23T10:15:21.539Z,100325.78
2022-12-23T10:17:52.931Z,100313.22
2022-12-23T10:20:37.299Z,100331.81
2022-12-23T10:23:08.765Z,100330.53
2022-12-23T10:25:44.984Z,100316.94
2022-12-23T10:28:11.712Z,100316.78
2022-12-23T10:33:42.724Z,100310.09
2022-12-23T10:36:47.662Z,100331.34
2022-12-23T10:39:27.939Z,100330.22
2022-12-23T10:42:17.869Z,100323.22
2022-12-23T10:45:17.824Z,100321.81
2022-12-23T10:48:23.079Z,100315.19
2022-12-23T10:51:03.838Z,100323.19
2022-12-23T10:53:30.387Z,100322.34
2022-12-23T10:55:58.152Z,100310.47
2022-12-23T10:58:26.351Z,100325.56
2022-12-23T11:00:59.805Z,100312.09
2022-12-23T11:03:31.266Z,100326.25
2022-12-23T11:05:59.777Z,100326.41
2022-12-23T11:08:30.130Z,100320.81
2022-12-23T11:10:57.167Z,100336.47
2022-12-23T11:13:32.382Z,100331.00
2022-12-23T11:16:28.568Z,100334.19
2022-12-23T11:19:13.703Z,100330.16
2022-12-23T11:21:55.331Z,100331.69
2022-12-23T11:24:22.784Z,100329.47
2022-12-23T11:26:59.176Z,100338.59
2022-12-23T11:29:31.900Z,100348.41
2022-12-23T11:31:59.196Z,100356.53
2022-12-23T11:34:29.089Z,100331.88
2022-12-23T11:37:03.367Z,100325.16
2022-12-23T11:39:36.747Z,100330.19
2022-12-23T11:42:07.744Z,100324.88
2022-12-23T11:44:38.006Z,100325.56
2022-12-23T11:47:22.685Z,100323.69
2022-12-23T11:49:50.398Z,100324.28
2022-12-23T11:52:22.371Z,100318.28
2022-12-23T11:54:55.008Z,100310.44
2022-12-23T11:57:30.627Z,100310.69
2022-12-23T12:00:01.526Z,100308.56
2022-12-23T12:02:35.419Z,100320.47
2022-12-23T12:05:08.766Z,100315.81
2022-12-23T12:07:35.823Z,100299.56
2022-12-23T12:10:03.385Z,100304.56
2022-12-23T12:12:30.466Z,100305.13
2022-12-23T12:15:00.010Z,100306.94
2022-12-23T12:17:39.411Z,100300.59
2022-12-23T12:20:21.120Z,100279.53
2022-12-23T12:23:02.191Z,100274.19
2022-12-23T12:25:44.212Z,100269.84
2022-12-23T12:28:20.208Z,100278.94
2022-12-23T12:31:02.036Z,100269.97
2022-12-23T12:33:41.380Z,100262.31
2022-12-23T12:36:18.865Z,100258.22
2022-12-23T12:38:48.488Z,100258.94
2022-12-23T12:41:46.593Z,100264.47
2022-12-23T12:44:16.009Z,100267.31
2022-12-23T12:46:47.045Z,100257.47
2022-12-23T12:49:25.562Z,100253.16
2022-12-23T12:52:08.776Z,100246.72
2022-12-23T12:54:38.209Z,100252.13
2022-12-23T12:57:04.698Z,100240.03
2022-12-23T12:59:38.678Z,100263.97
2022-12-23T13:02:23.597Z,100260.44
2022-12-23T13:05:21.177Z,100257.78
2022-12-23T13:08:18.607Z,100264.25
2022-12-23T13:11:01.176Z,100271.72
2022-12-23T13:13:54.067Z,100272.69
2022-12-23T13:16:27.553Z,100278.63
2022-12-23T13:19:31.654Z,100283.78
2022-12-23T13:22:08.485Z,100281.75
2022-12-23T13:25:03.271Z,100271.94
2022-12-23T13:27:52.777Z,100254.78
2022-12-23T13:30:23.826Z,100269.84
2022-12-23T13:33:09.176Z,100256.81
2022-12-23T13:35:50.831Z,100254.34
2022-12-23T13:38:54.901Z,100258.66
2022-12-23T13:41:35.988Z,100262.47
2022-12-23T13:44:07.878Z,100253.78
2022-12-23T13:46:52.948Z,100258.97
2022-12-23T13:49:31.305Z,100260.09
2022-12-23T13:52:11.413Z,100255.22
2022-12-23T13:54:46.677Z,100254.38
2022-12-23T13:57:25.263Z,100255.50
2022-12-23T14:00:23.230Z,100234.56
2022-12-23T14:02:52.936Z,100260.31
2022-12-23T14:05:32.494Z,100266.31
2022-12-23T14:08:20.310Z,100259.63
2022-12-23T14:11:30.328Z,100257.78
2022-12-23T14:14:02.751Z,100256.13
2022-12-23T14:17:06.733Z,100252.31
2022-12-23T14:19:42.753Z,100241.13
2022-12-23T14:22:24.774Z,100230.63
2022-12-23T14:25:17.323Z,100231.84
2022-12-23T14:27:49.847Z,100229.50
2022-12-23T14:30:35.761Z,100222.47
2022-12-23T14:33:33.094Z,100223.19
2022-12-23T14:36:22.091Z,100228.34
2022-12-23T14:39:13.094Z,100227.50
2022-12-23T14:41:52.097Z,100225.28
2022-12-23T14:44:40.956Z,100185.06
2022-12-23T14:47:34.517Z,100229.78
2022-12-23T14:50:36.987Z,100229.91
2022-12-23T14:53:19.099Z,100234.00
2022-12-23T14:55:46.887Z,100239.66
2022-12-23T14:58:30.862Z,100230.56
2022-12-23T15:01:03.124Z,100237.44
2022-12-23T15:03:56.039Z,100239.09
2022-12-23T15:06:36.800Z,100231.69
2022-12-23T15:09:05.042Z,100231.16
2022-12-23T15:11:34.263Z,100207.81
2022-12-23T15:14:07.718Z,100214.53
2022-12-23T15:16:37.300Z,100241.13
2022-12-23T15:19:25.147Z,100236.47
2022-12-23T15:22:15.317Z,100230.78
2022-12-23T15:24:46.191Z,100228.53
2022-12-23T15:27:27.292Z,100225.19
2022-12-23T15:29:55.060Z,100227.84
2022-12-23T15:32:23.833Z,100236.81
2022-12-23T15:34:52.226Z,100223.25
2022-12-23T15:37:26.523Z,100222.84
2022-12-23T15:40:03.092Z,100232.53
2022-12-23T15:42:35.338Z,100231.97
2022-12-23T15:45:26.313Z,100226.94
2022-12-23T15:47:52.704Z,100223.03
2022-12-23T15:50:19.624Z,100228.66
2022-12-23T15:52:50.056Z,100224.59
2022-12-23T15:55:31.477Z,100226.56
2022-12-23T15:57:59.319Z,100211.34
2022-12-23T16:00:51.273Z,100208.41
2022-12-23T16:03:29.773Z,100214.13
2022-12-23T16:17:43.592Z,100177.00
2022-12-23T16:20:15.818Z,100197.94
2022-12-23T16:22:44.599Z,100188.59
2022-12-23T16:25:24.684Z,100191.94
2022-12-23T16:28:12.700Z,100184.81
2022-12-23T16:30:44.893Z,100126.66
2022-12-23T16:33:36.969Z,100187.44
2022-12-23T16:36:24.995Z,100186.47
2022-12-23T16:38:58.857Z,100176.81
2022-12-23T16:41:25.489Z,100169.69
2022-12-23T16:43:53.061Z,100148.13
2022-12-23T16:46:22.396Z,100110.28
2022-12-23T16:48:52.849Z,100141.59
2022-12-23T16:51:23.347Z,100127.47
2022-12-23T16:53:52.407Z,100146.16
2022-12-23T16:56:21.048Z,100141.00
2022-12-23T16:58:48.333Z,100146.88
2022-12-23T17:01:23.234Z,100083.56
2022-12-23T17:03:50.308Z,100147.97
2022-12-23T17:06:17.941Z,100117.38
2022-12-23T17:08:44.413Z,100106.88
2022-12-23T17:11:19.468Z,100117.91
2022-12-23T17:13:46.247Z,100148.25
2022-12-23T17:16:20.065Z,100091.09
2022-12-23T17:18:52.096Z,100143.81
2022-12-23T17:21:22.126Z,100085.56
2022-12-23T17:23:50.169Z,100140.63
2022-12-23T17:26:16.803Z,100088.03
2022-12-23T17:28:43.262Z,100128.41
2022-12-23T17:31:14.755Z,100137.22
2022-12-23T17:33:42.727Z,100124.53
2022-12-23T17:36:13.158Z,100152.03
2022-12-23T17:38:39.810Z,100126.19
2022-12-23T17:41:06.364Z,100121.88
2022-12-23T17:43:32.796Z,100104.94
2022-12-23T17:45:59.280Z,100127.97
2022-12-23T17:48:31.407Z,100124.38
2022-12-23T17:50:58.496Z,100156.63
2022-12-23T17:53:24.953Z,100167.25
2022-12-23T17:55:51.437Z,100154.78
2022-12-23T17:58:17.887Z,100113.47
2022-12-23T18:00:44.416Z,100072.38
2022-12-23T18:03:23.025Z,100158.84
2022-12-23T18:05:51.121Z,100111.75
2022-12-23T18:08:20.819Z,100133.56
2022-12-23T18:10:47.334Z,100135.66
2022-12-23T18:13:17.007Z,100132.03
2022-12-23T18:15:44.695Z,100158.97
2022-12-23T18:18:26.860Z,100141.53
2022-12-23T18:20:57.117Z,100142.09
2022-12-23T18:23:27.448Z,100170.75
2022-12-23T18:25:54.884Z,100147.25
2022-12-23T18:28:22.389Z,100147.97
2022-12-23T18:30:49.902Z,100048.13
2022-12-23T18:33:16.677Z,100150.50
2022-12-23T18:36:01.285Z,100124.53
2022-12-23T18:38:27.732Z,99915.25
2022-12-23T18:40:56.509Z,100072.81
2022-12-23T18:43:25.260Z,100143.94
2022-12-23T18:45:53.847Z,100137.06
2022-12-23T18:48:21.292Z,100164.63
2022-12-23T18:50:47.953Z,100124.81
2022-12-23T18:53:23.331Z,100165.84
2022-12-23T18:55:51.256Z,100157.88
2022-12-23T18:58:18.034Z,100122.41
2022-12-23T19:00:44.919Z,100153.53
2022-12-23T19:03:21.895Z,100082.06
2022-12-23T19:05:49.027Z,100160.69
2022-12-23T19:08:20.337Z,100076.03
2022-12-23T19:10:52.091Z,100166.84
2022-12-23T19:13:19.273Z,100139.19
2022-12-23T19:15:46.466Z,100113.59
2022-12-23T19:18:15.266Z,100145.59
2022-12-23T19:20:43.098Z,100132.03
2022-12-23T19:23:11.194Z,100159.00
2022-12-23T19:25:41.914Z,100162.25
2022-12-23T19:28:08.769Z,100139.88
2022-12-23T19:30:35.420Z,100122.69
2022-12-23T19:33:01.963Z,100160.16
2022-12-23T19:35:28.431Z,100133.88
2022-12-23T19:37:54.852Z,100165.63
2022-12-23T19:40:21.616Z,100164.78
2022-12-23T19:42:48.135Z,100170.22
2022-12-23T19:45:14.653Z,100164.06
2022-12-23T19:47:41.330Z,100148.59
2022-12-23T19:50:08.448Z,100140.16
2022-12-23T19:52:35.020Z,100133.06
2022-12-23T19:55:01.492Z,100114.78
2022-12-23T19:57:28.204Z,100132.78
2022-12-23T19:59:54.843Z,100168.84
2022-12-23T20:02:23.340Z,100164.25
2022-12-23T20:04:50.050Z,100134.44
2022-12-23T20:07:16.526Z,100157.53
2022-12-23T20:09:42.951Z,100111.41
2022-12-23T20:12:09.454Z,100136.94
2022-12-23T20:14:36.011Z,100024.84
2022-12-23T20:17:02.533Z,100164.53
2022-12-23T20:19:29.273Z,100124.13
2022-12-23T20:21:55.776Z,100121.47
2022-12-23T20:24:22.208Z,100141.03
2022-12-23T20:26:48.640Z,100183.09
2022-12-23T20:29:15.201Z,100071.63
2022-12-23T20:31:41.813Z,100182.28
2022-12-23T20:34:13.668Z,100053.88
2022-12-23T20:36:40.151Z,100148.28
2022-12-23T20:39:06.700Z,100109.91
2022-12-23T20:41:33.686Z,100182.41
2022-12-23T20:44:33.418Z,100026.50
2022-12-23T20:46:46.945Z,100162.03
2022-12-23T20:49:13.470Z,100158.06
2022-12-23T20:51:39.908Z,100114.22
2022-12-23T20:54:06.359Z,100178.06
2022-12-23T20:56:32.793Z,100110.19
2022-12-23T20:59:00.141Z,100155.69
2022-12-23T21:01:32.774Z,100185.38
2022-12-23T21:04:01.708Z,100183.72
2022-12-23T21:06:29.835Z,100179.38
2022-12-23T21:08:58.813Z,100126.38
2022-12-23T21:11:28.396Z,100175.88
2022-12-23T21:13:55.344Z,100172.78
2022-12-23T21:16:23.050Z,100183.16
2022-12-23T21:18:52.638Z,100170.69
2022-12-23T21:21:26.280Z,100177.00
2022-12-23T21:23:55.501Z,100053.47
2022-12-23T21:26:24.750Z,100171.63
2022-12-23T21:28:53.035Z,100148.63
2022-12-23T21:31:22.688Z,100172.06
2022-12-23T21:33:50.679Z,100173.88
2022-12-23T21:36:23.208Z,100137.28
2022-12-23T21:38:50.498Z,100164.81
2022-12-23T21:41:20.058Z,100181.47
2022-12-23T21:43:47.346Z,100191.94
2022-12-23T21:46:17.141Z,100129.34
2022-12-23T21:48:44.256Z,100189.56
2022-12-23T21:51:14.903Z,100190.41
2022-12-23T21:53:42.698Z,100128.38
2022-12-23T21:56:15.805Z,100188.75
2022-12-23T21:58:42.758Z,100177.97
2022-12-23T22:01:12.676Z,100134.94
2022-12-23T22:03:39.334Z,100058.66
2022-12-23T22:06:10.157Z,100208.31
2022-12-23T22:08:37.582Z,100133.13
2022-12-23T22:11:12.191Z,100168.75
2022-12-23T22:13:38.908Z,100143.88
2022-12-23T22:16:09.738Z,100213.22
2022-12-23T22:18:37.667Z,100172.00
2022-12-23T22:21:05.910Z,100186.38
2022-12-23T22:23:32.493Z,100202.59
2022-12-23T22:25:59.139Z,100181.22
2022-12-23T22:28:25.698Z,100205.25
2022-12-23T22:30:52.303Z,100215.47
2022-12-23T22:33:18.802Z,100205.66
2022-12-23T22:35:54.674Z,100192.09
2022-12-23T22:38:21.202Z,100221.63
2022-12-23T22:40:51.896Z,100182.31
2022-12-23T22:43:19.458Z,100222.03
2022-12-23T22:45:46.317Z,100217.00
2022-12-23T22:48:12.944Z,100088.38
2022-12-23T22:50:39.560Z,100208.03
2022-12-23T22:53:06.027Z,100154.06
2022-12-23T22:55:32.599Z,100210.94
2022-12-23T22:57:59.011Z,100149.28
2022-12-23T23:00:25.637Z,100065.13
2022-12-23T23:02:52.067Z,100187.91
2022-12-23T23:05:18.548Z,100180.72
2022-12-23T23:07:45.106Z,100158.53
2022-12-23T23:10:11.612Z,100244.94
2022-12-23T23:12:38.045Z,100219.47
2022-12-23T23:15:04.855Z,100230.25
2022-12-23T23:17:31.337Z,100219.19
2022-12-23T23:19:57.723Z,100190.50
2022-12-23T23:22:25.322Z,100241.97
2022-12-23T23:24:52.232Z,100208.25
2022-12-23T23:27:19.108Z,100204.47
2022-12-23T23:29:45.587Z,100222.09
2022-12-23T23:32:12.315Z,100225.47
2022-12-23T23:34:38.790Z,100201.66
2022-12-23T23:37:05.326Z,100233.56
2022-12-23T23:39:32.131Z,100199.00
2022-12-23T23:41:58.920Z,100212.25
2022-12-23T23:44:25.385Z,100230.91
2022-12-23T23:46:51.848Z,100096.22
2022-12-23T23:49:18.301Z,100218.31
2022-12-23T23:51:44.769Z,100225.72
2022-12-23T23:54:11.339Z,100232.84
2022-12-23T23:56:39.408Z,100199.41
2022-12-23T23:59:07.287Z,100233.94
